createdAt,value
2022-12-18T00:02:02.116Z,37.81
2022-12-18T00:04:29.776Z,37.79
2022-12-18T00:06:57.248Z,37.92
2022-12-18T00:09:24.835Z,37.65
2022-12-18T00:11:52.517Z,37.65
2022-12-18T00:14:19.995Z,37.50
2022-12-18T00:16:48.773Z,37.64
2022-12-18T00:19:16.227Z,37.66
2022-12-18T00:21:43.856Z,37.64
2022-12-18T00:24:11.453Z,37.49
2022-12-18T00:26:39.700Z,37.52
2022-12-18T00:29:08.503Z,37.86
2022-12-18T00:31:36.051Z,37.56
2022-12-18T00:34:04.883Z,37.47
2022-12-18T00:36:33.350Z,37.37
2022-12-18T00:41:36.628Z,37.30
2022-12-18T00:44:04.223Z,37.53
2022-12-18T00:46:31.727Z,37.40
2022-12-18T00:48:59.167Z,37.34
2022-12-18T00:51:28.225Z,37.56
2022-12-18T00:53:55.688Z,37.38
2022-12-18T00:56:23.156Z,37.41
2022-12-18T00:58:50.636Z,37.33
2022-12-18T01:01:18.317Z,37.23
2022-12-18T01:03:46.061Z,37.31
2022-12-18T01:06:14.497Z,37.34
2022-12-18T01:08:43.376Z,37.35
2022-12-18T01:11:11.150Z,37.11
2022-12-18T01:13:38.978Z,37.38
2022-12-18T01:16:06.967Z,37.08
2022-12-18T01:18:34.445Z,37.35
2022-12-18T01:21:01.897Z,37.32
2022-12-18T01:23:29.348Z,37.36
2022-12-18T01:25:59.017Z,37.28
2022-12-18T01:28:26.461Z,37.20
2022-12-18T01:30:53.883Z,37.07
2022-12-18T01:33:21.325Z,37.18
2022-12-18T01:35:48.763Z,37.15
2022-12-18T01:38:16.228Z,37.20
2022-12-18T01:40:43.659Z,37.11
2022-12-18T01:43:12.475Z,37.04
2022-12-18T01:45:40.142Z,37.13
2022-12-18T01:48:08.269Z,37.01
2022-12-18T01:50:37.595Z,37.26
2022-12-18T01:53:07.481Z,37.04
2022-12-18T01:55:38.168Z,37.12
2022-12-18T01:58:05.657Z,37.27
2022-12-18T02:00:34.445Z,37.13
2022-12-18T02:03:01.981Z,37.24
2022-12-18T02:05:37.208Z,37.19
2022-12-18T02:08:09.936Z,37.15
2022-12-18T02:10:39.882Z,37.22
2022-12-18T02:13:10.661Z,37.07
2022-12-18T02:15:41.306Z,37.34
2022-12-18T02:18:09.928Z,37.24
2022-12-18T02:20:38.438Z,37.12
2022-12-18T02:23:10.994Z,37.07
2022-12-18T02:25:53.873Z,37.31
2022-12-18T02:28:21.999Z,37.09
2022-12-18T02:30:49.803Z,37.27
2022-12-18T02:33:17.344Z,37.17
2022-12-18T02:35:44.765Z,37.13
2022-12-18T02:38:12.207Z,37.11
2022-12-18T02:40:39.629Z,37.18
2022-12-18T02:43:10.984Z,37.38
2022-12-18T02:45:47.452Z,37.33
2022-12-18T02:48:14.941Z,37.16
2022-12-18T02:50:46.244Z,37.30
2022-12-18T02:53:16.783Z,37.24
2022-12-18T02:55:50.715Z,37.34
2022-12-18T02:58:20.761Z,37.23
2022-12-18T03:00:50.626Z,37.14
2022-12-18T03:03:20.657Z,37.29
2022-12-18T03:05:49.728Z,37.11
2022-12-18T03:08:18.173Z,37.34
2022-12-18T03:10:49.241Z,37.05
2022-12-18T03:13:20.461Z,37.29
2022-12-18T03:15:49.040Z,37.27
2022-12-18T03:18:18.206Z,37.22
2022-12-18T03:20:46.022Z,37.30
2022-12-18T03:23:14.487Z,37.10
2022-12-18T03:25:46.085Z,37.24
2022-12-18T03:28:14.931Z,37.14
2022-12-18T03:30:43.807Z,37.24
2022-12-18T03:33:13.910Z,37.25
2022-12-18T03:35:43.696Z,37.05
2022-12-18T03:38:11.404Z,37.21
2022-12-18T03:40:45.468Z,37.19
2022-12-18T03:43:14.565Z,37.12
2022-12-18T03:45:46.749Z,37.10
2022-12-18T03:48:16.805Z,37.04
2022-12-18T03:50:47.232Z,37.06
2022-12-18T03:53:20.224Z,36.92
2022-12-18T03:55:47.660Z,37.07
2022-12-18T03:58:16.101Z,37.04
2022-12-18T04:00:44.881Z,37.13
2022-12-18T04:03:12.349Z,37.24
2022-12-18T04:05:39.828Z,37.03
2022-12-18T04:08:07.316Z,37.10
2022-12-18T04:10:34.740Z,37.23
2022-12-18T04:13:02.221Z,37.24
2022-12-18T04:15:29.690Z,37.15
2022-12-18T04:17:58.481Z,37.17
2022-12-18T04:20:25.918Z,37.07
2022-12-18T04:22:53.397Z,37.16
2022-12-18T04:25:20.831Z,37.12
2022-12-18T04:27:48.267Z,37.32
2022-12-18T04:30:15.807Z,37.11
2022-12-18T04:32:46.507Z,36.90
2022-12-18T04:35:18.022Z,37.09
2022-12-18T04:37:45.455Z,37.01
2022-12-18T04:40:13.959Z,37.11
2022-12-18T04:42:41.508Z,37.02
2022-12-18T04:45:10.079Z,36.94
2022-12-18T04:47:37.521Z,37.06
2022-12-18T04:50:05.637Z,37.01
2022-12-18T04:52:35.507Z,37.16
2022-12-18T04:55:03.055Z,37.05
2022-12-18T04:57:30.505Z,36.99
2022-12-18T04:59:58.017Z,37.10
2022-12-18T05:02:25.551Z,36.98
2022-12-18T05:04:53.117Z,37.06
2022-12-18T05:07:20.549Z,36.97
2022-12-18T05:09:49.345Z,37.04
2022-12-18T05:12:16.812Z,36.91
2022-12-18T05:14:44.256Z,36.94
2022-12-18T05:17:11.708Z,36.96
2022-12-18T05:19:39.231Z,36.95
2022-12-18T05:22:09.680Z,36.99
2022-12-18T05:24:37.410Z,37.13
2022-12-18T05:27:06.173Z,37.17
2022-12-18T05:29:33.623Z,36.93
2022-12-18T05:32:01.044Z,36.96
2022-12-18T05:34:28.488Z,37.07
2022-12-18T05:36:55.915Z,36.87
2022-12-18T05:39:23.387Z,36.89
2022-12-18T05:41:50.841Z,36.94
2022-12-18T05:44:19.637Z,36.86
2022-12-18T05:46:47.087Z,37.00
2022-12-18T05:49:14.549Z,36.96
2022-12-18T05:51:42.009Z,37.23
2022-12-18T05:54:10.174Z,37.01
2022-12-18T05:56:37.791Z,37.05
2022-12-18T05:59:05.250Z,37.16
2022-12-18T06:01:34.058Z,36.94
2022-12-18T06:04:01.600Z,36.99
2022-12-18T06:06:29.653Z,37.03
2022-12-18T06:08:58.373Z,36.94
2022-12-18T06:11:26.784Z,37.06
2022-12-18T06:13:58.154Z,37.00
2022-12-18T06:16:26.757Z,37.03
2022-12-18T06:18:55.624Z,37.03
2022-12-18T06:21:23.123Z,36.93
2022-12-18T06:23:50.553Z,37.00
2022-12-18T06:26:18.844Z,37.12
2022-12-18T06:28:48.509Z,37.12
2022-12-18T06:31:15.995Z,36.99
2022-12-18T06:33:43.583Z,37.00
2022-12-18T06:36:13.395Z,37.03
2022-12-18T06:38:43.190Z,36.85
2022-12-18T06:41:10.878Z,37.01
2022-12-18T06:43:38.672Z,37.02
2022-12-18T06:46:06.796Z,36.86
2022-12-18T06:48:34.332Z,37.06
2022-12-18T06:51:01.779Z,36.82
2022-12-18T06:53:30.630Z,37.06
2022-12-18T06:56:07.891Z,36.95
2022-12-18T06:58:37.209Z,36.90
2022-12-18T07:01:05.589Z,37.04
2022-12-18T07:03:33.098Z,36.94
2022-12-18T07:06:00.549Z,36.89
2022-12-18T07:08:27.984Z,37.00
2022-12-18T07:10:56.852Z,37.05
2022-12-18T07:13:24.335Z,36.97
2022-12-18T07:15:51.819Z,36.81
2022-12-18T07:18:19.248Z,36.95
2022-12-18T07:20:46.752Z,36.91
2022-12-18T07:23:15.295Z,36.97
2022-12-18T07:25:42.765Z,36.88
2022-12-18T07:28:17.332Z,37.00
2022-12-18T07:30:45.172Z,36.87
2022-12-18T07:33:12.649Z,36.94
2022-12-18T07:35:40.131Z,36.88
2022-12-18T07:38:07.841Z,36.81
2022-12-18T07:40:35.329Z,36.87
2022-12-18T07:43:02.838Z,36.87
2022-12-18T07:45:31.707Z,36.86
2022-12-18T07:47:59.196Z,36.97
2022-12-18T07:50:26.664Z,36.90
2022-12-18T07:52:54.123Z,36.81
2022-12-18T07:55:21.581Z,36.94
2022-12-18T07:57:51.274Z,36.78
2022-12-18T08:00:20.180Z,36.81
2022-12-18T08:02:50.314Z,36.73
2022-12-18T08:05:18.121Z,36.77
2022-12-18T08:07:45.747Z,36.89
2022-12-18T08:10:13.191Z,36.83
2022-12-18T08:12:40.685Z,36.73
2022-12-18T08:15:08.826Z,36.67
2022-12-18T08:17:36.330Z,36.60
2022-12-18T08:20:05.479Z,36.38
2022-12-18T08:22:33.017Z,36.60
2022-12-18T08:25:00.503Z,36.55
2022-12-18T08:27:29.733Z,36.33
2022-12-18T08:29:57.565Z,36.43
2022-12-18T08:32:25.078Z,36.38
2022-12-18T08:34:52.626Z,36.43
2022-12-18T08:37:21.440Z,36.23
2022-12-18T08:39:48.885Z,36.27
2022-12-18T08:42:34.139Z,36.05
2022-12-18T08:45:01.581Z,36.20
2022-12-18T08:47:29.029Z,36.04
2022-12-18T08:49:56.590Z,36.04
2022-12-18T08:52:25.358Z,36.11
2022-12-18T08:54:52.863Z,36.11
2022-12-18T08:57:20.354Z,36.17
2022-12-18T08:59:47.796Z,36.09
2022-12-18T09:02:15.343Z,36.19
2022-12-18T09:04:42.961Z,36.24
2022-12-18T09:07:10.439Z,36.09
2022-12-18T09:09:39.248Z,36.20
2022-12-18T09:12:06.782Z,36.14
2022-12-18T09:14:34.237Z,36.26
2022-12-18T09:17:01.810Z,36.30
2022-12-18T09:19:29.469Z,36.26
2022-12-18T09:21:56.980Z,36.13
2022-12-18T09:24:24.452Z,36.20
2022-12-18T09:26:58.106Z,36.21
2022-12-18T09:29:25.668Z,36.30
2022-12-18T09:31:53.168Z,36.19
2022-12-18T09:34:21.888Z,36.23
2022-12-18T09:36:49.959Z,36.21
2022-12-18T09:39:18.026Z,36.14
2022-12-18T09:41:48.685Z,36.21
2022-12-18T09:44:21.937Z,36.28
2022-12-18T09:46:54.473Z,36.35
2022-12-18T09:49:23.977Z,36.31
2022-12-18T09:51:52.764Z,36.38
2022-12-18T09:54:22.228Z,36.24
2022-12-18T09:56:49.802Z,36.40
2022-12-18T09:59:23.304Z,36.43
2022-12-18T10:01:51.014Z,36.38
2022-12-18T10:04:18.773Z,36.58
2022-12-18T10:06:49.050Z,36.63
2022-12-18T10:09:19.365Z,36.50
2022-12-18T10:11:49.339Z,36.52
2022-12-18T10:14:19.211Z,36.67
2022-12-18T10:16:55.038Z,36.62
2022-12-18T10:19:34.908Z,36.83
2022-12-18T10:22:05.342Z,36.66
2022-12-18T10:24:35.849Z,36.68
2022-12-18T10:27:12.790Z,36.48
2022-12-18T10:29:40.240Z,36.57
2022-12-18T10:32:10.950Z,36.61
2022-12-18T10:34:38.880Z,36.75
2022-12-18T10:37:08.127Z,36.86
2022-12-18T10:39:35.692Z,36.42
2022-12-18T10:42:12.304Z,36.70
2022-12-18T10:44:39.764Z,36.79
2022-12-18T10:47:13.185Z,36.79
2022-12-18T10:49:42.378Z,36.71
2022-12-18T10:52:15.993Z,36.73
2022-12-18T10:54:48.803Z,36.74
2022-12-18T10:57:17.078Z,36.68
2022-12-18T10:59:52.226Z,36.60
2022-12-18T11:02:28.739Z,36.48
2022-12-18T11:04:56.412Z,36.54
2022-12-18T11:07:23.976Z,36.52
2022-12-18T11:10:01.673Z,36.49
2022-12-18T11:12:30.285Z,36.40
2022-12-18T11:14:58.482Z,36.56
2022-12-18T11:17:31.019Z,36.32
2022-12-18T11:19:58.983Z,36.48
2022-12-18T11:22:28.530Z,36.55
2022-12-18T11:27:51.611Z,36.55
2022-12-18T11:30:23.799Z,36.52
2022-12-18T11:32:53.122Z,36.44
2022-12-18T11:35:22.632Z,36.60
2022-12-18T11:37:52.404Z,36.65
2022-12-18T11:40:21.560Z,36.71
2022-12-18T11:42:52.042Z,36.71
2022-12-18T11:45:35.163Z,36.67
2022-12-18T11:48:06.582Z,36.69
2022-12-18T11:50:39.934Z,36.93
2022-12-18T11:53:11.855Z,37.00
2022-12-18T11:55:42.074Z,36.97
2022-12-18T11:58:11.802Z,37.04
2022-12-18T12:00:42.296Z,37.04
2022-12-18T12:03:22.202Z,37.04
2022-12-18T12:05:56.587Z,37.28
2022-12-18T12:08:26.040Z,37.23
2022-12-18T12:10:57.385Z,37.38
2022-12-18T12:13:31.139Z,37.33
2022-12-18T12:16:08.172Z,37.34
2022-12-18T12:18:43.099Z,37.45
2022-12-18T12:21:13.901Z,37.53
2022-12-18T12:23:43.850Z,37.64
2022-12-18T12:26:12.014Z,37.50
2022-12-18T12:28:54.090Z,37.56
2022-12-18T12:31:26.616Z,37.47
2022-12-18T12:33:58.877Z,37.60
2022-12-18T12:36:28.466Z,37.97
2022-12-18T12:38:56.849Z,38.18
2022-12-18T12:41:43.387Z,38.14
2022-12-18T12:44:25.005Z,38.16
2022-12-18T12:46:52.511Z,38.30
2022-12-18T12:49:25.467Z,38.16
2022-12-18T12:51:55.396Z,38.22
2022-12-18T12:54:25.501Z,38.23
2022-12-18T12:56:54.400Z,38.33
2022-12-18T12:59:25.452Z,38.27
2022-12-18T13:01:55.409Z,38.37
2022-12-18T13:04:32.757Z,38.42
2022-12-18T13:07:01.951Z,38.45
2022-12-18T13:09:32.198Z,38.41
2022-12-18T13:12:21.744Z,38.36
2022-12-18T13:14:49.253Z,38.46
2022-12-18T13:17:18.597Z,38.39
2022-12-18T13:19:50.344Z,38.41
2022-12-18T13:22:24.681Z,38.52
2022-12-18T13:24:52.610Z,38.53
2022-12-18T13:27:56.713Z,38.58
2022-12-18T13:30:48.321Z,38.50
2022-12-18T13:36:37.988Z,38.50
2022-12-18T13:39:35.247Z,38.71
2022-12-18T13:42:58.216Z,38.71
2022-12-18T13:45:46.248Z,38.75
2022-12-18T13:48:23.550Z,38.75
2022-12-18T13:50:59.289Z,38.89
2022-12-18T13:53:29.770Z,38.74
2022-12-18T13:55:57.515Z,38.83
2022-12-18T13:58:24.955Z,38.94
2022-12-18T14:00:52.466Z,38.70
2022-12-18T14:03:22.662Z,38.74
2022-12-18T14:05:54.924Z,38.89
2022-12-18T14:08:22.368Z,38.92
2022-12-18T14:10:51.933Z,39.22
2022-12-18T14:13:22.185Z,39.04
2022-12-18T14:15:50.146Z,38.98
2022-12-18T14:18:21.610Z,38.94
2022-12-18T14:20:52.916Z,39.05
2022-12-18T14:23:29.210Z,39.23
2022-12-18T14:26:02.221Z,38.89
2022-12-18T14:28:32.838Z,39.15
2022-12-18T14:31:00.478Z,39.02
2022-12-18T14:33:28.917Z,39.22
2022-12-18T14:35:58.401Z,39.19
2022-12-18T14:38:30.421Z,39.17
2022-12-18T14:41:01.392Z,39.26
2022-12-18T14:43:29.668Z,39.25
2022-12-18T14:45:57.354Z,39.34
2022-12-18T14:48:34.786Z,39.52
2022-12-18T14:51:03.285Z,39.34
2022-12-18T14:53:38.853Z,39.22
2022-12-18T14:56:15.859Z,39.18
2022-12-18T14:58:47.245Z,39.34
2022-12-18T15:01:20.917Z,39.48
2022-12-18T15:03:48.472Z,39.26
2022-12-18T15:06:20.153Z,39.23
2022-12-18T15:08:47.597Z,39.41
2022-12-18T15:11:35.609Z,39.32
2022-12-18T15:14:23.927Z,39.36
2022-12-18T15:16:55.263Z,39.55
2022-12-18T15:19:23.090Z,39.40
2022-12-18T15:21:50.867Z,39.44
2022-12-18T15:24:22.702Z,39.57
2022-12-18T15:26:51.707Z,39.43
2022-12-18T15:29:23.410Z,39.42
2022-12-18T15:32:00.918Z,39.58
2022-12-18T15:34:28.360Z,39.47
2022-12-18T15:36:55.956Z,39.64
2022-12-18T15:39:23.457Z,39.65
2022-12-18T15:42:10.160Z,39.52
2022-12-18T15:44:37.689Z,39.76
2022-12-18T15:47:05.821Z,39.61
2022-12-18T15:49:33.278Z,39.64
2022-12-18T15:52:02.012Z,39.76
2022-12-18T15:54:47.173Z,39.52
2022-12-18T15:57:24.940Z,39.75
2022-12-18T15:59:53.510Z,39.75
2022-12-18T16:02:21.175Z,39.47
2022-12-18T16:04:48.682Z,39.70
2022-12-18T16:07:20.635Z,39.73
2022-12-18T16:09:53.114Z,39.68
2022-12-18T16:12:23.156Z,39.70
2022-12-18T16:14:50.609Z,39.74
2022-12-18T16:17:18.047Z,39.71
2022-12-18T16:19:45.667Z,39.80
2022-12-18T16:22:19.923Z,39.70
2022-12-18T16:24:47.381Z,39.77
2022-12-18T16:27:14.811Z,39.86
2022-12-18T16:29:43.593Z,39.90
2022-12-18T16:32:13.301Z,39.87
2022-12-18T16:34:40.752Z,39.82
2022-12-18T16:37:08.947Z,39.74
2022-12-18T16:39:36.595Z,39.58
2022-12-18T16:42:05.674Z,39.84
2022-12-18T16:44:33.804Z,39.80
2022-12-18T16:47:03.773Z,39.96
2022-12-18T16:49:31.352Z,39.92
2022-12-18T16:51:58.975Z,39.78
2022-12-18T16:54:26.425Z,39.86
2022-12-18T16:56:53.848Z,39.90
2022-12-18T16:59:21.388Z,39.76
2022-12-18T17:01:49.406Z,39.89
2022-12-18T17:04:18.258Z,39.89
2022-12-18T17:06:51.477Z,39.77
2022-12-18T17:09:20.281Z,39.93
2022-12-18T17:11:47.709Z,40.17
2022-12-18T17:14:16.052Z,39.97
2022-12-18T17:16:43.600Z,39.98
2022-12-18T17:19:16.789Z,39.94
2022-12-18T17:21:46.435Z,39.98
2022-12-18T17:24:13.872Z,39.99
2022-12-18T17:26:41.430Z,40.13
2022-12-18T17:29:09.073Z,39.93
2022-12-18T17:31:36.535Z,40.12
2022-12-18T17:34:04.258Z,39.90
2022-12-18T17:36:32.209Z,40.02
2022-12-18T17:39:02.108Z,39.90
2022-12-18T17:41:30.084Z,40.00
2022-12-18T17:43:58.711Z,39.93
2022-12-18T17:46:26.718Z,39.88
2022-12-18T17:48:56.059Z,40.04
2022-12-18T17:51:23.675Z,40.12
2022-12-18T17:53:51.192Z,40.12
2022-12-18T17:56:21.432Z,39.96
2022-12-18T17:58:50.225Z,40.15
2022-12-18T18:01:18.624Z,40.14
2022-12-18T18:03:50.952Z,40.19
2022-12-18T18:06:21.013Z,40.18
2022-12-18T18:08:48.653Z,39.99
2022-12-18T18:11:34.561Z,40.08
2022-12-18T18:14:05.322Z,40.15
2022-12-18T18:16:34.846Z,40.13
2022-12-18T18:19:03.042Z,40.24
2022-12-18T18:21:30.531Z,40.22
2022-12-18T18:24:00.557Z,40.18
2022-12-18T18:26:29.219Z,40.26
2022-12-18T18:28:57.855Z,40.19
2022-12-18T18:31:27.174Z,40.04
2022-12-18T18:33:54.673Z,40.16
2022-12-18T18:36:22.269Z,40.13
2022-12-18T18:38:49.692Z,40.07
2022-12-18T18:41:17.503Z,40.08
2022-12-18T18:43:45.276Z,39.97
2022-12-18T18:46:13.689Z,40.17
2022-12-18T18:48:43.777Z,40.20
2022-12-18T18:51:11.915Z,40.05
2022-12-18T18:53:42.885Z,40.13
2022-12-18T18:56:50.172Z,40.15
2022-12-18T18:58:59.140Z,40.09
2022-12-18T19:01:26.736Z,40.18
2022-12-18T19:03:55.566Z,40.16
2022-12-18T19:06:24.232Z,40.18
2022-12-18T19:08:52.140Z,39.93
2022-12-18T19:11:37.433Z,39.98
2022-12-18T19:14:05.297Z,40.04
2022-12-18T19:16:32.943Z,40.06
2022-12-18T19:19:02.279Z,40.18
2022-12-18T19:21:31.252Z,40.18
2022-12-18T19:24:01.439Z,39.99
2022-12-18T19:26:29.070Z,39.98
2022-12-18T19:29:01.791Z,40.04
2022-12-18T19:31:34.759Z,40.05
2022-12-18T19:34:04.796Z,39.85
2022-12-18T19:36:35.118Z,39.98
2022-12-18T19:39:02.600Z,40.06
2022-12-18T19:41:32.822Z,39.88
2022-12-18T19:44:00.923Z,39.80
2022-12-18T19:46:35.430Z,39.96
2022-12-18T19:49:04.284Z,40.04
2022-12-18T19:51:32.299Z,40.18
2022-12-18T19:54:01.690Z,40.16
2022-12-18T19:56:31.339Z,40.15
2022-12-18T19:58:58.818Z,40.18
2022-12-18T20:01:26.511Z,40.09
2022-12-18T20:03:55.289Z,40.21
2022-12-18T20:06:28.357Z,40.12
2022-12-18T20:09:00.267Z,40.44
2022-12-18T20:11:28.771Z,40.23
2022-12-18T20:13:56.221Z,40.24
2022-12-18T20:16:23.708Z,40.25
2022-12-18T20:18:51.458Z,40.20
2022-12-18T20:21:19.880Z,40.17
2022-12-18T20:23:48.663Z,40.21
2022-12-18T20:26:16.289Z,40.14
2022-12-18T20:28:43.736Z,40.30
2022-12-18T20:31:13.549Z,40.42
2022-12-18T20:33:42.389Z,40.17
2022-12-18T20:36:14.216Z,40.27
2022-12-18T20:38:42.919Z,40.39
2022-12-18T20:41:15.234Z,40.24
2022-12-18T20:43:43.311Z,40.17
2022-12-18T20:46:11.486Z,40.21
2022-12-18T20:48:38.983Z,40.29
2022-12-18T20:51:08.565Z,40.29
2022-12-18T20:53:36.572Z,40.25
2022-12-18T20:56:07.289Z,40.30
2022-12-18T20:58:36.086Z,40.46
2022-12-18T21:01:05.060Z,40.44
2022-12-18T21:03:32.596Z,40.21
2022-12-18T21:06:00.079Z,40.25
2022-12-18T21:08:27.551Z,40.37
2022-12-18T21:10:55.713Z,40.28
2022-12-18T21:13:23.192Z,40.26
2022-12-18T21:15:54.019Z,40.15
2022-12-18T21:18:21.466Z,40.14
2022-12-18T21:20:49.132Z,40.25
2022-12-18T21:23:17.052Z,40.29
2022-12-18T21:25:45.624Z,40.37
2022-12-18T21:28:14.356Z,40.28
2022-12-18T21:30:41.953Z,40.33
2022-12-18T21:33:10.760Z,40.30
2022-12-18T21:35:38.207Z,40.32
2022-12-18T21:38:05.872Z,40.24
2022-12-18T21:40:33.555Z,40.32
2022-12-18T21:43:18.747Z,40.23
2022-12-18T21:45:46.273Z,40.20
2022-12-18T21:48:15.111Z,40.31
2022-12-18T21:50:42.555Z,40.46
2022-12-18T21:53:10.060Z,40.39
2022-12-18T21:55:37.540Z,40.44
2022-12-18T21:58:04.969Z,40.35
2022-12-18T22:00:32.397Z,40.47
2022-12-18T22:03:08.711Z,40.37
2022-12-18T22:05:49.666Z,40.47
2022-12-18T22:08:28.289Z,40.36
2022-12-18T22:10:55.760Z,40.38
2022-12-18T22:13:23.347Z,40.52
2022-12-18T22:15:50.951Z,40.17
2022-12-18T22:18:18.426Z,40.55
2022-12-18T22:20:45.875Z,40.50
2022-12-18T22:23:14.678Z,40.38
2022-12-18T22:25:42.126Z,40.54
2022-12-18T22:28:35.460Z,40.55
2022-12-18T22:31:02.953Z,40.59
2022-12-18T22:33:30.437Z,40.63
2022-12-18T22:35:57.899Z,40.56
2022-12-18T22:38:26.737Z,40.31
2022-12-18T22:40:55.277Z,40.64
2022-12-18T22:43:22.711Z,40.64
2022-12-18T22:45:50.174Z,40.63
2022-12-18T22:48:17.683Z,40.54
2022-12-18T22:50:45.137Z,40.68
2022-12-18T22:53:12.605Z,40.74
2022-12-18T22:55:41.405Z,40.61
2022-12-18T22:58:08.889Z,40.73
2022-12-18T23:00:36.314Z,40.87
2022-12-18T23:03:03.885Z,40.87
2022-12-18T23:05:34.644Z,40.78
2022-12-18T23:08:02.132Z,40.88
2022-12-18T23:10:29.566Z,40.75
2022-12-18T23:12:58.349Z,40.79
2022-12-18T23:15:28.141Z,40.82
2022-12-18T23:17:56.016Z,40.45
2022-12-18T23:20:23.436Z,41.01
2022-12-18T23:22:50.880Z,40.85
2022-12-18T23:25:18.332Z,40.95
2022-12-18T23:27:45.807Z,40.91
2022-12-18T23:30:14.937Z,41.05
2022-12-18T23:32:42.436Z,40.98
2022-12-18T23:35:10.173Z,41.08
2022-12-18T23:37:58.586Z,40.90
2022-12-18T23:40:27.086Z,41.06
2022-12-18T23:42:54.533Z,41.17
2022-12-18T23:45:23.319Z,41.24
2022-12-18T23:47:51.111Z,41.22
2022-12-18T23:50:18.920Z,40.89
2022-12-18T23:52:49.575Z,41.30
2022-12-18T23:55:17.255Z,41.36
2022-12-18T23:57:44.679Z,41.30
